sensor_id;sensor_type;location;lat;lon;timestamp;P1;durP1;ratioP1;P2;durP2;ratioP2
20729;SDS011;10526;50.850;12.928;2023-11-21T00:03:33;5.00;;;2.20;;
20729;SDS011;10526;50.850;12.928;2023-11-21T00:07:56;8.65;;;2.30;;
20729;SDS011;10526;50.850;12.928;2023-11-21T00:12:18;5.95;;;2.63;;
20729;SDS011;10526;50.850;12.928;2023-11-21T00:16:41;6.03;;;2.10;;
20729;SDS011;10526;50.850;12.928;2023-11-21T00:21:04;6.03;;;2.63;;
20729;SDS011;10526;50.850;12.928;2023-11-21T00:25:26;6.90;;;2.28;;
20729;SDS011;10526;50.850;12.928;2023-11-21T00:29:48;6.40;;;2.35;;
20729;SDS011;10526;50.850;12.928;2023-11-21T00:34:11;8.30;;;2.70;;
20729;SDS011;10526;50.850;12.928;2023-11-21T00:38:34;5.30;;;2.10;;
20729;SDS011;10526;50.850;12.928;2023-11-21T00:42:56;9.20;;;2.58;;
20729;SDS011;10526;50.850;12.928;2023-11-21T00:47:19;4.70;;;2.30;;
20729;SDS011;10526;50.850;12.928;2023-11-21T00:51:41;6.00;;;2.30;;
20729;SDS011;10526;50.850;12.928;2023-11-21T00:56:03;4.75;;;2.75;;
20729;SDS011;10526;50.850;12.928;2023-11-21T01:00:25;8.88;;;3.17;;
20729;SDS011;10526;50.850;12.928;2023-11-21T01:04:48;11.38;;;3.25;;
20729;SDS011;10526;50.850;12.928;2023-11-21T01:09:10;7.60;;;3.42;;
20729;SDS011;10526;50.850;12.928;2023-11-21T01:13:32;9.85;;;3.95;;
20729;SDS011;10526;50.850;12.928;2023-11-21T01:17:54;13.80;;;4.10;;
20729;SDS011;10526;50.850;12.928;2023-11-21T01:22:16;10.48;;;4.05;;
20729;SDS011;10526;50.850;12.928;2023-11-21T01:26:39;9.73;;;4.32;;
20729;SDS011;10526;50.850;12.928;2023-11-21T01:31:01;10.25;;;4.25;;
20729;SDS011;10526;50.850;12.928;2023-11-21T01:35:23;9.95;;;4.25;;
20729;SDS011;10526;50.850;12.928;2023-11-21T01:39:47;10.45;;;4.55;;
20729;SDS011;10526;50.850;12.928;2023-11-21T01:44:09;10.40;;;4.47;;
20729;SDS011;10526;50.850;12.928;2023-11-21T01:48:32;9.32;;;4.53;;
20729;SDS011;10526;50.850;12.928;2023-11-21T01:52:55;13.45;;;5.38;;
20729;SDS011;10526;50.850;12.928;2023-11-21T01:57:19;12.10;;;4.82;;
20729;SDS011;10526;50.850;12.928;2023-11-21T02:01:42;15.75;;;6.05;;
20729;SDS011;10526;50.850;12.928;2023-11-21T02:06:05;16.45;;;6.55;;
20729;SDS011;10526;50.850;12.928;2023-11-21T02:10:27;13.80;;;5.32;;
20729;SDS011;10526;50.850;12.928;2023-11-21T02:14:52;19.35;;;5.93;;
20729;SDS011;10526;50.850;12.928;2023-11-21T02:19:14;10.48;;;5.03;;
20729;SDS011;10526;50.850;12.928;2023-11-21T02:23:47;14.38;;;6.18;;
20729;SDS011;10526;50.850;12.928;2023-11-21T02:28:09;14.85;;;5.47;;
20729;SDS011;10526;50.850;12.928;2023-11-21T02:32:34;13.35;;;5.78;;
20729;SDS011;10526;50.850;12.928;2023-11-21T02:37:08;13.93;;;4.95;;
20729;SDS011;10526;50.850;12.928;2023-11-21T02:41:32;14.10;;;5.90;;
20729;SDS011;10526;50.850;12.928;2023-11-21T02:45:55;11.30;;;4.97;;
20729;SDS011;10526;50.850;12.928;2023-11-21T02:50:17;13.23;;;4.68;;
20729;SDS011;10526;50.850;12.928;2023-11-21T02:54:40;13.48;;;4.97;;
20729;SDS011;10526;50.850;12.928;2023-11-21T02:59:03;11.35;;;4.07;;
20729;SDS011;10526;50.850;12.928;2023-11-21T03:03:26;12.25;;;4.88;;
20729;SDS011;10526;50.850;12.928;2023-11-21T03:07:48;12.35;;;4.15;;
20729;SDS011;10526;50.850;12.928;2023-11-21T03:12:10;9.02;;;3.90;;
20729;SDS011;10526;50.850;12.928;2023-11-21T03:16:35;10.35;;;4.07;;
20729;SDS011;10526;50.850;12.928;2023-11-21T03:21:00;10.00;;;4.35;;
20729;SDS011;10526;50.850;12.928;2023-11-21T03:25:22;10.07;;;3.80;;
20729;SDS011;10526;50.850;12.928;2023-11-21T03:29:45;12.75;;;4.35;;
20729;SDS011;10526;50.850;12.928;2023-11-21T03:34:14;12.80;;;4.45;;
20729;SDS011;10526;50.850;12.928;2023-11-21T03:38:49;11.50;;;4.03;;
20729;SDS011;10526;50.850;12.928;2023-11-21T03:43:11;12.13;;;4.22;;
20729;SDS011;10526;50.850;12.928;2023-11-21T03:47:34;10.55;;;4.13;;
20729;SDS011;10526;50.850;12.928;2023-11-21T03:51:57;8.43;;;3.50;;
20729;SDS011;10526;50.850;12.928;2023-11-21T03:56:19;10.55;;;4.28;;
20729;SDS011;10526;50.850;12.928;2023-11-21T04:00:45;11.18;;;4.03;;
20729;SDS011;10526;50.850;12.928;2023-11-21T04:05:10;9.85;;;3.97;;
20729;SDS011;10526;50.850;12.928;2023-11-21T04:09:33;14.00;;;4.30;;
20729;SDS011;10526;50.850;12.928;2023-11-21T04:13:56;15.35;;;6.28;;
20729;SDS011;10526;50.850;12.928;2023-11-21T04:18:18;14.57;;;4.43;;
20729;SDS011;10526;50.850;12.928;2023-11-21T04:22:40;9.40;;;3.78;;
20729;SDS011;10526;50.850;12.928;2023-11-21T04:27:06;14.32;;;4.10;;
20729;SDS011;10526;50.850;12.928;2023-11-21T04:31:28;10.18;;;5.18;;
20729;SDS011;10526;50.850;12.928;2023-11-21T04:35:50;8.40;;;3.90;;
20729;SDS011;10526;50.850;12.928;2023-11-21T04:40:12;10.40;;;4.13;;
20729;SDS011;10526;50.850;12.928;2023-11-21T04:44:34;13.32;;;4.60;;
20729;SDS011;10526;50.850;12.928;2023-11-21T04:48:56;12.23;;;4.15;;
20729;SDS011;10526;50.850;12.928;2023-11-21T04:53:19;8.98;;;4.10;;
20729;SDS011;10526;50.850;12.928;2023-11-21T04:57:41;12.38;;;4.25;;
20729;SDS011;10526;50.850;12.928;2023-11-21T05:02:03;9.57;;;4.30;;
20729;SDS011;10526;50.850;12.928;2023-11-21T05:06:26;13.88;;;4.28;;
20729;SDS011;10526;50.850;12.928;2023-11-21T05:10:48;15.90;;;4.70;;
20729;SDS011;10526;50.850;12.928;2023-11-21T05:15:13;13.02;;;5.20;;
20729;SDS011;10526;50.850;12.928;2023-11-21T05:19:37;13.25;;;5.30;;
20729;SDS011;10526;50.850;12.928;2023-11-21T05:24:00;11.38;;;5.30;;
20729;SDS011;10526;50.850;12.928;2023-11-21T05:28:22;12.88;;;5.78;;
20729;SDS011;10526;50.850;12.928;2023-11-21T05:32:44;13.98;;;5.43;;
20729;SDS011;10526;50.850;12.928;2023-11-21T05:37:08;11.88;;;5.70;;
20729;SDS011;10526;50.850;12.928;2023-11-21T05:41:30;20.35;;;7.57;;
20729;SDS011;10526;50.850;12.928;2023-11-21T05:45:52;16.63;;;7.32;;
20729;SDS011;10526;50.850;12.928;2023-11-21T05:50:15;14.50;;;7.43;;
20729;SDS011;10526;50.850;12.928;2023-11-21T05:54:38;13.60;;;6.85;;
20729;SDS011;10526;50.850;12.928;2023-11-21T05:59:01;15.45;;;7.88;;
20729;SDS011;10526;50.850;12.928;2023-11-21T06:03:24;17.17;;;7.53;;
20729;SDS011;10526;50.850;12.928;2023-11-21T06:07:47;13.38;;;7.60;;
20729;SDS011;10526;50.850;12.928;2023-11-21T06:12:09;19.33;;;8.27;;
20729;SDS011;10526;50.850;12.928;2023-11-21T06:16:31;17.30;;;8.30;;
20729;SDS011;10526;50.850;12.928;2023-11-21T06:20:53;17.00;;;9.68;;
20729;SDS011;10526;50.850;12.928;2023-11-21T06:25:15;20.58;;;9.93;;
20729;SDS011;10526;50.850;12.928;2023-11-21T06:29:38;18.70;;;10.15;;
20729;SDS011;10526;50.850;12.928;2023-11-21T06:34:00;19.52;;;10.95;;
20729;SDS011;10526;50.850;12.928;2023-11-21T06:38:24;18.23;;;10.73;;
20729;SDS011;10526;50.850;12.928;2023-11-21T06:42:49;20.35;;;10.77;;
20729;SDS011;10526;50.850;12.928;2023-11-21T06:47:12;21.73;;;11.15;;
20729;SDS011;10526;50.850;12.928;2023-11-21T06:51:34;21.08;;;11.02;;
20729;SDS011;10526;50.850;12.928;2023-11-21T06:55:56;20.95;;;11.10;;
20729;SDS011;10526;50.850;12.928;2023-11-21T07:00:18;20.92;;;11.23;;
20729;SDS011;10526;50.850;12.928;2023-11-21T07:04:40;21.27;;;10.68;;
20729;SDS011;10526;50.850;12.928;2023-11-21T07:09:02;19.75;;;11.43;;
20729;SDS011;10526;50.850;12.928;2023-11-21T07:13:25;23.48;;;10.93;;
20729;SDS011;10526;50.850;12.928;2023-11-21T07:17:47;26.38;;;11.13;;
20729;SDS011;10526;50.850;12.928;2023-11-21T07:22:10;23.38;;;10.38;;
20729;SDS011;10526;50.850;12.928;2023-11-21T07:26:32;18.98;;;9.90;;
20729;SDS011;10526;50.850;12.928;2023-11-21T07:30:55;22.90;;;9.75;;
20729;SDS011;10526;50.850;12.928;2023-11-21T07:35:17;19.63;;;9.25;;
20729;SDS011;10526;50.850;12.928;2023-11-21T07:39:40;17.50;;;9.25;;
20729;SDS011;10526;50.850;12.928;2023-11-21T07:44:03;19.27;;;9.80;;
20729;SDS011;10526;50.850;12.928;2023-11-21T07:48:26;20.55;;;9.55;;
20729;SDS011;10526;50.850;12.928;2023-11-21T07:52:50;20.55;;;8.77;;
20729;SDS011;10526;50.850;12.928;2023-11-21T07:57:13;19.75;;;8.77;;
20729;SDS011;10526;50.850;12.928;2023-11-21T08:01:36;16.98;;;9.05;;
20729;SDS011;10526;50.850;12.928;2023-11-21T08:05:58;19.63;;;8.90;;
20729;SDS011;10526;50.850;12.928;2023-11-21T08:10:21;26.33;;;9.88;;
20729;SDS011;10526;50.850;12.928;2023-11-21T08:14:43;20.20;;;8.23;;
20729;SDS011;10526;50.850;12.928;2023-11-21T08:19:06;22.85;;;8.98;;
20729;SDS011;10526;50.850;12.928;2023-11-21T08:23:30;20.83;;;9.32;;
20729;SDS011;10526;50.850;12.928;2023-11-21T08:27:52;23.23;;;10.23;;
20729;SDS011;10526;50.850;12.928;2023-11-21T08:32:15;19.95;;;10.45;;
20729;SDS011;10526;50.850;12.928;2023-11-21T08:36:41;23.70;;;10.95;;
20729;SDS011;10526;50.850;12.928;2023-11-21T08:41:07;26.23;;;12.40;;
20729;SDS011;10526;50.850;12.928;2023-11-21T08:45:29;21.40;;;11.95;;
20729;SDS011;10526;50.850;12.928;2023-11-21T08:49:51;28.85;;;12.52;;
20729;SDS011;10526;50.850;12.928;2023-11-21T08:54:14;26.27;;;13.10;;
20729;SDS011;10526;50.850;12.928;2023-11-21T08:58:37;27.52;;;13.43;;
20729;SDS011;10526;50.850;12.928;2023-11-21T09:03:00;20.77;;;11.00;;
20729;SDS011;10526;50.850;12.928;2023-11-21T09:07:25;21.77;;;11.45;;
20729;SDS011;10526;50.850;12.928;2023-11-21T09:11:47;23.40;;;11.65;;
20729;SDS011;10526;50.850;12.928;2023-11-21T09:16:10;20.75;;;11.52;;
20729;SDS011;10526;50.850;12.928;2023-11-21T09:20:32;21.35;;;10.40;;
20729;SDS011;10526;50.850;12.928;2023-11-21T09:24:55;21.05;;;11.35;;
20729;SDS011;10526;50.850;12.928;2023-11-21T09:29:18;21.45;;;10.15;;
20729;SDS011;10526;50.850;12.928;2023-11-21T09:33:42;17.33;;;9.57;;
20729;SDS011;10526;50.850;12.928;2023-11-21T09:38:05;19.85;;;9.80;;
20729;SDS011;10526;50.850;12.928;2023-11-21T09:42:36;16.13;;;8.43;;
20729;SDS011;10526;50.850;12.928;2023-11-21T09:47:07;15.80;;;7.22;;
20729;SDS011;10526;50.850;12.928;2023-11-21T09:51:34;11.82;;;6.15;;
20729;SDS011;10526;50.850;12.928;2023-11-21T09:56:00;15.45;;;7.00;;
20729;SDS011;10526;50.850;12.928;2023-11-21T10:00:23;15.60;;;6.72;;
20729;SDS011;10526;50.850;12.928;2023-11-21T10:04:46;14.52;;;6.82;;
20729;SDS011;10526;50.850;12.928;2023-11-21T10:09:12;14.90;;;7.38;;
20729;SDS011;10526;50.850;12.928;2023-11-21T10:13:36;15.95;;;8.25;;
20729;SDS011;10526;50.850;12.928;2023-11-21T10:18:01;17.92;;;9.30;;
20729;SDS011;10526;50.850;12.928;2023-11-21T10:22:25;19.38;;;9.90;;
20729;SDS011;10526;50.850;12.928;2023-11-21T10:26:48;20.65;;;10.13;;
20729;SDS011;10526;50.850;12.928;2023-11-21T10:31:14;31.05;;;15.48;;
20729;SDS011;10526;50.850;12.928;2023-11-21T10:35:44;23.15;;;12.52;;
20729;SDS011;10526;50.850;12.928;2023-11-21T10:40:16;27.02;;;12.13;;
20729;SDS011;10526;50.850;12.928;2023-11-21T10:44:38;43.13;;;11.95;;
20729;SDS011;10526;50.850;12.928;2023-11-21T10:49:02;63.83;;;12.57;;
20729;SDS011;10526;50.850;12.928;2023-11-21T10:53:28;85.53;;;13.68;;
20729;SDS011;10526;50.850;12.928;2023-11-21T10:57:54;45.95;;;11.95;;
20729;SDS011;10526;50.850;12.928;2023-11-21T11:02:21;38.67;;;14.73;;
20729;SDS011;10526;50.850;12.928;2023-11-21T11:07:08;33.53;;;13.38;;
20729;SDS011;10526;50.850;12.928;2023-11-21T11:11:34;31.98;;;15.43;;
20729;SDS011;10526;50.850;12.928;2023-11-21T11:16:00;36.58;;;14.40;;
20729;SDS011;10526;50.850;12.928;2023-11-21T11:20:30;52.78;;;18.70;;
20729;SDS011;10526;50.850;12.928;2023-11-21T11:35:24;97.82;;;13.68;;
20729;SDS011;10526;50.850;12.928;2023-11-21T11:40:05;23.75;;;9.77;;
20729;SDS011;10526;50.850;12.928;2023-11-21T11:49:09;27.77;;;8.23;;
20729;SDS011;10526;50.850;12.928;2023-11-21T11:53:36;22.00;;;9.95;;
20729;SDS011;10526;50.850;12.928;2023-11-21T11:58:05;17.60;;;8.13;;
20729;SDS011;10526;50.850;12.928;2023-11-21T12:02:28;24.92;;;9.23;;
20729;SDS011;10526;50.850;12.928;2023-11-21T12:06:51;23.17;;;9.40;;
20729;SDS011;10526;50.850;12.928;2023-11-21T12:11:14;17.63;;;9.40;;
20729;SDS011;10526;50.850;12.928;2023-11-21T12:15:39;19.27;;;9.18;;
20729;SDS011;10526;50.850;12.928;2023-11-21T12:20:03;30.25;;;9.05;;
20729;SDS011;10526;50.850;12.928;2023-11-21T12:24:28;16.90;;;7.82;;
20729;SDS011;10526;50.850;12.928;2023-11-21T12:28:53;21.48;;;9.80;;
20729;SDS011;10526;50.850;12.928;2023-11-21T12:33:19;22.65;;;10.25;;
20729;SDS011;10526;50.850;12.928;2023-11-21T12:37:41;22.75;;;10.73;;
20729;SDS011;10526;50.850;12.928;2023-11-21T12:42:04;23.77;;;11.77;;
20729;SDS011;10526;50.850;12.928;2023-11-21T12:46:28;21.50;;;10.10;;
20729;SDS011;10526;50.850;12.928;2023-11-21T12:50:56;24.85;;;11.27;;
20729;SDS011;10526;50.850;12.928;2023-11-21T12:55:21;24.35;;;11.95;;
20729;SDS011;10526;50.850;12.928;2023-11-21T12:59:45;22.75;;;10.85;;
20729;SDS011;10526;50.850;12.928;2023-11-21T13:04:07;22.40;;;10.88;;
20729;SDS011;10526;50.850;12.928;2023-11-21T13:08:31;21.33;;;10.10;;
20729;SDS011;10526;50.850;12.928;2023-11-21T13:12:54;20.25;;;10.38;;
20729;SDS011;10526;50.850;12.928;2023-11-21T13:17:19;22.25;;;10.10;;
20729;SDS011;10526;50.850;12.928;2023-11-21T13:21:44;20.73;;;9.68;;
20729;SDS011;10526;50.850;12.928;2023-11-21T13:26:06;19.40;;;9.70;;
20729;SDS011;10526;50.850;12.928;2023-11-21T13:30:30;22.58;;;10.57;;
20729;SDS011;10526;50.850;12.928;2023-11-21T13:34:55;21.02;;;10.32;;
20729;SDS011;10526;50.850;12.928;2023-11-21T13:39:17;23.67;;;10.68;;
20729;SDS011;10526;50.850;12.928;2023-11-21T13:43:40;20.77;;;10.23;;
20729;SDS011;10526;50.850;12.928;2023-11-21T13:48:07;22.77;;;9.70;;
20729;SDS011;10526;50.850;12.928;2023-11-21T13:52:41;20.33;;;9.43;;
20729;SDS011;10526;50.850;12.928;2023-11-21T13:57:03;19.25;;;8.05;;
20729;SDS011;10526;50.850;12.928;2023-11-21T14:01:26;20.05;;;8.52;;
20729;SDS011;10526;50.850;12.928;2023-11-21T14:05:51;18.23;;;7.95;;
20729;SDS011;10526;50.850;12.928;2023-11-21T14:10:13;21.98;;;9.55;;
20729;SDS011;10526;50.850;12.928;2023-11-21T14:14:37;19.50;;;9.65;;
20729;SDS011;10526;50.850;12.928;2023-11-21T14:19:00;17.00;;;8.60;;
20729;SDS011;10526;50.850;12.928;2023-11-21T14:23:25;20.02;;;8.30;;
20729;SDS011;10526;50.850;12.928;2023-11-21T14:27:47;19.77;;;9.38;;
20729;SDS011;10526;50.850;12.928;2023-11-21T14:32:09;20.70;;;9.05;;
20729;SDS011;10526;50.850;12.928;2023-11-21T14:36:32;19.25;;;9.23;;
20729;SDS011;10526;50.850;12.928;2023-11-21T14:40:57;16.88;;;7.35;;
20729;SDS011;10526;50.850;12.928;2023-11-21T14:45:20;15.38;;;6.68;;
20729;SDS011;10526;50.850;12.928;2023-11-21T14:49:42;17.45;;;7.45;;
20729;SDS011;10526;50.850;12.928;2023-11-21T14:54:15;16.17;;;7.13;;
20729;SDS011;10526;50.850;12.928;2023-11-21T14:58:46;19.67;;;7.95;;
20729;SDS011;10526;50.850;12.928;2023-11-21T15:03:09;18.38;;;7.47;;
20729;SDS011;10526;50.850;12.928;2023-11-21T15:07:56;14.38;;;6.78;;
20729;SDS011;10526;50.850;12.928;2023-11-21T15:12:30;17.13;;;7.60;;
20729;SDS011;10526;50.850;12.928;2023-11-21T15:16:55;17.75;;;7.40;;
20729;SDS011;10526;50.850;12.928;2023-11-21T15:21:21;19.52;;;8.20;;
20729;SDS011;10526;50.850;12.928;2023-11-21T15:25:45;19.08;;;8.43;;
20729;SDS011;10526;50.850;12.928;2023-11-21T15:30:08;20.00;;;8.63;;
20729;SDS011;10526;50.850;12.928;2023-11-21T15:34:30;17.40;;;7.78;;
20729;SDS011;10526;50.850;12.928;2023-11-21T15:38:53;20.58;;;8.40;;
20729;SDS011;10526;50.850;12.928;2023-11-21T15:43:15;20.65;;;8.98;;
20729;SDS011;10526;50.850;12.928;2023-11-21T15:47:38;19.85;;;8.65;;
20729;SDS011;10526;50.850;12.928;2023-11-21T15:52:00;18.92;;;10.20;;
20729;SDS011;10526;50.850;12.928;2023-11-21T15:56:22;23.55;;;11.45;;
20729;SDS011;10526;50.850;12.928;2023-11-21T16:00:44;25.98;;;13.57;;
20729;SDS011;10526;50.850;12.928;2023-11-21T16:05:06;30.77;;;15.70;;
20729;SDS011;10526;50.850;12.928;2023-11-21T16:09:28;22.80;;;11.90;;
20729;SDS011;10526;50.850;12.928;2023-11-21T16:13:54;39.95;;;20.30;;
20729;SDS011;10526;50.850;12.928;2023-11-21T16:18:16;29.95;;;12.98;;
20729;SDS011;10526;50.850;12.928;2023-11-21T16:22:38;29.80;;;12.63;;
20729;SDS011;10526;50.850;12.928;2023-11-21T16:27:01;29.27;;;12.40;;
20729;SDS011;10526;50.850;12.928;2023-11-21T16:31:25;25.10;;;10.55;;
20729;SDS011;10526;50.850;12.928;2023-11-21T16:35:47;20.90;;;9.65;;
20729;SDS011;10526;50.850;12.928;2023-11-21T16:40:09;26.63;;;10.18;;
20729;SDS011;10526;50.850;12.928;2023-11-21T16:44:33;20.88;;;10.13;;
20729;SDS011;10526;50.850;12.928;2023-11-21T16:48:56;19.33;;;8.27;;
20729;SDS011;10526;50.850;12.928;2023-11-21T16:53:19;21.02;;;8.10;;
20729;SDS011;10526;50.850;12.928;2023-11-21T16:57:41;18.50;;;8.23;;
20729;SDS011;10526;50.850;12.928;2023-11-21T17:02:03;20.50;;;8.88;;
20729;SDS011;10526;50.850;12.928;2023-11-21T17:06:27;20.92;;;8.73;;
20729;SDS011;10526;50.850;12.928;2023-11-21T17:10:50;17.67;;;8.75;;
20729;SDS011;10526;50.850;12.928;2023-11-21T17:15:13;21.42;;;9.27;;
20729;SDS011;10526;50.850;12.928;2023-11-21T17:19:39;20.38;;;10.25;;
20729;SDS011;10526;50.850;12.928;2023-11-21T17:24:05;21.20;;;10.02;;
20729;SDS011;10526;50.850;12.928;2023-11-21T17:28:30;23.25;;;10.07;;
20729;SDS011;10526;50.850;12.928;2023-11-21T17:32:53;19.65;;;9.85;;
20729;SDS011;10526;50.850;12.928;2023-11-21T17:37:18;25.20;;;12.38;;
20729;SDS011;10526;50.850;12.928;2023-11-21T17:41:40;19.50;;;10.13;;
20729;SDS011;10526;50.850;12.928;2023-11-21T17:46:02;20.42;;;10.02;;
20729;SDS011;10526;50.850;12.928;2023-11-21T17:50:28;22.65;;;10.77;;
20729;SDS011;10526;50.850;12.928;2023-11-21T17:54:50;22.80;;;11.15;;
20729;SDS011;10526;50.850;12.928;2023-11-21T17:59:13;23.70;;;12.13;;
20729;SDS011;10526;50.850;12.928;2023-11-21T18:03:37;18.98;;;10.35;;
20729;SDS011;10526;50.850;12.928;2023-11-21T18:08:00;21.52;;;10.52;;
20729;SDS011;10526;50.850;12.928;2023-11-21T18:12:22;16.50;;;8.80;;
20729;SDS011;10526;50.850;12.928;2023-11-21T18:16:44;13.48;;;6.63;;
20729;SDS011;10526;50.850;12.928;2023-11-21T18:21:06;14.02;;;6.57;;
20729;SDS011;10526;50.850;12.928;2023-11-21T18:25:28;11.52;;;5.22;;
20729;SDS011;10526;50.850;12.928;2023-11-21T18:29:50;13.75;;;5.22;;
20729;SDS011;10526;50.850;12.928;2023-11-21T18:34:13;10.85;;;5.10;;
20729;SDS011;10526;50.850;12.928;2023-11-21T18:38:35;10.05;;;4.90;;
20729;SDS011;10526;50.850;12.928;2023-11-21T18:42:59;11.68;;;5.60;;
20729;SDS011;10526;50.850;12.928;2023-11-21T18:47:22;9.93;;;5.22;;
20729;SDS011;10526;50.850;12.928;2023-11-21T18:51:45;10.70;;;5.18;;
20729;SDS011;10526;50.850;12.928;2023-11-21T18:56:17;10.77;;;5.35;;
20729;SDS011;10526;50.850;12.928;2023-11-21T19:00:43;9.88;;;5.03;;
20729;SDS011;10526;50.850;12.928;2023-11-21T19:05:05;13.32;;;6.03;;
20729;SDS011;10526;50.850;12.928;2023-11-21T19:09:29;12.57;;;6.10;;
20729;SDS011;10526;50.850;12.928;2023-11-21T19:13:52;11.55;;;6.00;;
20729;SDS011;10526;50.850;12.928;2023-11-21T19:18:15;12.82;;;6.20;;
20729;SDS011;10526;50.850;12.928;2023-11-21T19:22:37;13.18;;;5.55;;
20729;SDS011;10526;50.850;12.928;2023-11-21T19:26:59;11.73;;;6.07;;
20729;SDS011;10526;50.850;12.928;2023-11-21T19:31:23;12.65;;;6.32;;
20729;SDS011;10526;50.850;12.928;2023-11-21T19:35:45;12.43;;;6.60;;
20729;SDS011;10526;50.850;12.928;2023-11-21T19:40:08;13.40;;;6.45;;
20729;SDS011;10526;50.850;12.928;2023-11-21T19:44:30;12.05;;;5.95;;
20729;SDS011;10526;50.850;12.928;2023-11-21T19:48:53;12.60;;;6.43;;
20729;SDS011;10526;50.850;12.928;2023-11-21T19:53:15;13.38;;;6.85;;
20729;SDS011;10526;50.850;12.928;2023-11-21T19:57:37;13.50;;;7.13;;
20729;SDS011;10526;50.850;12.928;2023-11-21T20:02:01;16.73;;;8.85;;
20729;SDS011;10526;50.850;12.928;2023-11-21T20:06:24;16.33;;;7.60;;
20729;SDS011;10526;50.850;12.928;2023-11-21T20:10:46;13.70;;;7.18;;
20729;SDS011;10526;50.850;12.928;2023-11-21T20:15:08;11.65;;;6.55;;
20729;SDS011;10526;50.850;12.928;2023-11-21T20:19:31;11.40;;;5.82;;
20729;SDS011;10526;50.850;12.928;2023-11-21T20:23:53;11.52;;;5.40;;
20729;SDS011;10526;50.850;12.928;2023-11-21T20:28:15;11.32;;;5.53;;
20729;SDS011;10526;50.850;12.928;2023-11-21T20:32:37;12.52;;;5.50;;
20729;SDS011;10526;50.850;12.928;2023-11-21T20:37:00;12.07;;;5.55;;
20729;SDS011;10526;50.850;12.928;2023-11-21T20:41:26;9.90;;;4.95;;
20729;SDS011;10526;50.850;12.928;2023-11-21T20:45:50;13.02;;;6.18;;
20729;SDS011;10526;50.850;12.928;2023-11-21T20:50:12;11.85;;;5.93;;
20729;SDS011;10526;50.850;12.928;2023-11-21T20:54:34;12.38;;;5.55;;
20729;SDS011;10526;50.850;12.928;2023-11-21T20:58:57;12.38;;;5.57;;
20729;SDS011;10526;50.850;12.928;2023-11-21T21:03:27;11.88;;;5.78;;
20729;SDS011;10526;50.850;12.928;2023-11-21T21:07:50;10.98;;;5.28;;
20729;SDS011;10526;50.850;12.928;2023-11-21T21:12:12;10.70;;;5.20;;
20729;SDS011;10526;50.850;12.928;2023-11-21T21:16:39;8.95;;;4.30;;
20729;SDS011;10526;50.850;12.928;2023-11-21T21:21:03;9.77;;;4.60;;
20729;SDS011;10526;50.850;12.928;2023-11-21T21:25:27;8.95;;;3.63;;
20729;SDS011;10526;50.850;12.928;2023-11-21T21:29:49;6.15;;;3.50;;
20729;SDS011;10526;50.850;12.928;2023-11-21T21:34:14;7.57;;;3.65;;
20729;SDS011;10526;50.850;12.928;2023-11-21T21:38:38;8.93;;;4.07;;
20729;SDS011;10526;50.850;12.928;2023-11-21T21:43:01;10.32;;;4.20;;
20729;SDS011;10526;50.850;12.928;2023-11-21T21:47:24;8.70;;;4.63;;
20729;SDS011;10526;50.850;12.928;2023-11-21T21:51:51;11.40;;;5.60;;
20729;SDS011;10526;50.850;12.928;2023-11-21T21:56:19;11.80;;;5.40;;
20729;SDS011;10526;50.850;12.928;2023-11-21T22:00:42;10.77;;;5.35;;
20729;SDS011;10526;50.850;12.928;2023-11-21T22:05:05;12.43;;;6.50;;
20729;SDS011;10526;50.850;12.928;2023-11-21T22:09:32;14.13;;;7.18;;
20729;SDS011;10526;50.850;12.928;2023-11-21T22:13:58;15.95;;;8.57;;
20729;SDS011;10526;50.850;12.928;2023-11-21T22:18:20;14.10;;;8.18;;
20729;SDS011;10526;50.850;12.928;2023-11-21T22:22:42;16.17;;;9.20;;
20729;SDS011;10526;50.850;12.928;2023-11-21T22:27:05;16.77;;;8.68;;
20729;SDS011;10526;50.850;12.928;2023-11-21T22:31:27;14.93;;;8.07;;
20729;SDS011;10526;50.850;12.928;2023-11-21T22:35:53;17.23;;;9.23;;
20729;SDS011;10526;50.850;12.928;2023-11-21T22:40:15;16.20;;;8.82;;
20729;SDS011;10526;50.850;12.928;2023-11-21T22:44:40;14.98;;;8.68;;
20729;SDS011;10526;50.850;12.928;2023-11-21T22:49:03;16.80;;;9.35;;
20729;SDS011;10526;50.850;12.928;2023-11-21T22:53:29;16.50;;;9.30;;
20729;SDS011;10526;50.850;12.928;2023-11-21T22:57:52;17.25;;;10.20;;
20729;SDS011;10526;50.850;12.928;2023-11-21T23:02:15;17.35;;;9.95;;
20729;SDS011;10526;50.850;12.928;2023-11-21T23:06:38;17.23;;;10.00;;
20729;SDS011;10526;50.850;12.928;2023-11-21T23:11:01;17.08;;;10.15;;
20729;SDS011;10526;50.850;12.928;2023-11-21T23:15:24;18.38;;;10.40;;
20729;SDS011;10526;50.850;12.928;2023-11-21T23:19:46;19.02;;;10.38;;
20729;SDS011;10526;50.850;12.928;2023-11-21T23:24:16;19.17;;;10.45;;
20729;SDS011;10526;50.850;12.928;2023-11-21T23:28:41;18.35;;;10.48;;
20729;SDS011;10526;50.850;12.928;2023-11-21T23:33:04;21.13;;;11.27;;
20729;SDS011;10526;50.850;12.928;2023-11-21T23:37:28;21.80;;;12.48;;
20729;SDS011;10526;50.850;12.928;2023-11-21T23:41:51;24.85;;;14.38;;
20729;SDS011;10526;50.850;12.928;2023-11-21T23:46:13;24.20;;;13.80;;
20729;SDS011;10526;50.850;12.928;2023-11-21T23:50:35;24.10;;;13.98;;
20729;SDS011;10526;50.850;12.928;2023-11-21T23:54:58;24.63;;;13.35;;
20729;SDS011;10526;50.850;12.928;2023-11-21T23:59:20;28.60;;;15.82;;
